sensor_id;sensor_type;location;lat;lon;timestamp;pressure;altitude;pressure_sealevel;temperature;humidity
61742;BME280;47650;49.848;9.620;2023-02-12T00:01:33;101600.69;;;8.22;59.93
61742;BME280;47650;49.848;9.620;2023-02-12T00:04:00;101640.78;;;8.64;60.54
61742;BME280;47650;49.848;9.620;2023-02-12T00:06:26;101597.78;;;8.44;60.52
61742;BME280;47650;49.848;9.620;2023-02-12T00:08:55;101636.88;;;8.71;60.45
61742;BME280;47650;49.848;9.620;2023-02-12T00:11:33;101631.59;;;8.71;59.68
61742;BME280;47650;49.848;9.620;2023-02-12T00:14:00;101637.53;;;8.59;59.02
61742;BME280;47650;49.848;9.620;2023-02-12T00:16:36;101641.00;;;8.26;60.44
61742;BME280;47650;49.848;9.620;2023-02-12T00:19:14;101627.22;;;8.37;61.24
61742;BME280;47650;49.848;9.620;2023-02-12T00:21:46;101637.75;;;8.21;60.83
61742;BME280;47650;49.848;9.620;2023-02-12T00:24:16;101626.00;;;8.26;61.55
61742;BME280;47650;49.848;9.620;2023-02-12T00:26:42;101647.91;;;8.46;61.97
61742;BME280;47650;49.848;9.620;2023-02-12T00:29:10;101625.34;;;8.39;61.50
61742;BME280;47650;49.848;9.620;2023-02-12T00:31:46;101638.06;;;8.50;61.06
61742;BME280;47650;49.848;9.620;2023-02-12T00:34:13;101650.16;;;8.54;60.25
61742;BME280;47650;49.848;9.620;2023-02-12T00:36:44;101655.28;;;8.57;60.44
61742;BME280;47650;49.848;9.620;2023-02-12T00:39:10;101590.97;;;8.23;60.38
61742;BME280;47650;49.848;9.620;2023-02-12T00:41:41;101648.63;;;8.50;60.51
61742;BME280;47650;49.848;9.620;2023-02-12T00:44:08;101638.06;;;8.15;60.54
61742;BME280;47650;49.848;9.620;2023-02-12T00:46:40;101641.66;;;8.14;61.11
61742;BME280;47650;49.848;9.620;2023-02-12T00:49:24;101648.66;;;7.80;62.40
61742;BME280;47650;49.848;9.620;2023-02-12T00:51:55;101633.13;;;7.74;63.26
61742;BME280;47650;49.848;9.620;2023-02-12T00:54:21;101527.34;;;7.07;62.80
61742;BME280;47650;49.848;9.620;2023-02-12T00:56:48;101602.53;;;7.52;62.38
61742;BME280;47650;49.848;9.620;2023-02-12T00:59:22;101635.94;;;7.70;62.56
61742;BME280;47650;49.848;9.620;2023-02-12T01:01:54;101653.38;;;7.73;62.53
61742;BME280;47650;49.848;9.620;2023-02-12T01:04:20;101642.06;;;7.71;62.38
61742;BME280;47650;49.848;9.620;2023-02-12T01:06:46;101575.34;;;7.32;62.68
61742;BME280;47650;49.848;9.620;2023-02-12T01:09:18;101649.50;;;7.80;61.90
61742;BME280;47650;49.848;9.620;2023-02-12T01:11:43;101648.66;;;7.80;62.39
61742;BME280;47650;49.848;9.620;2023-02-12T01:14:08;101627.44;;;7.64;61.95
61742;BME280;47650;49.848;9.620;2023-02-12T01:16:34;101592.28;;;7.09;62.06
61742;BME280;47650;49.848;9.620;2023-02-12T01:19:12;101598.91;;;7.18;63.00
61742;BME280;47650;49.848;9.620;2023-02-12T01:21:47;101650.22;;;7.30;62.81
61742;BME280;47650;49.848;9.620;2023-02-12T01:24:23;101632.88;;;7.07;62.50
61742;BME280;47650;49.848;9.620;2023-02-12T01:26:55;101625.03;;;6.86;63.19
61742;BME280;47650;49.848;9.620;2023-02-12T01:29:23;101634.44;;;6.73;63.62
61742;BME280;47650;49.848;9.620;2023-02-12T01:31:49;101620.53;;;6.50;63.86
61742;BME280;47650;49.848;9.620;2023-02-12T01:34:17;101644.25;;;6.50;62.76
61742;BME280;47650;49.848;9.620;2023-02-12T01:36:49;101644.00;;;6.36;63.63
61742;BME280;47650;49.848;9.620;2023-02-12T01:39:15;101647.19;;;6.24;63.71
61742;BME280;47650;49.848;9.620;2023-02-12T01:41:43;101637.19;;;6.11;64.89
61742;BME280;47650;49.848;9.620;2023-02-12T01:46:49;101643.13;;;5.96;65.73
61742;BME280;47650;49.848;9.620;2023-02-12T01:49:20;101645.06;;;5.91;66.11
61742;BME280;47650;49.848;9.620;2023-02-12T01:51:52;101596.94;;;5.67;66.39
61742;BME280;47650;49.848;9.620;2023-02-12T01:54:22;101640.09;;;6.05;66.20
61742;BME280;47650;49.848;9.620;2023-02-12T01:57:07;101577.16;;;5.78;66.31
61742;BME280;47650;49.848;9.620;2023-02-12T01:59:44;101635.22;;;6.16;66.70
61742;BME280;47650;49.848;9.620;2023-02-12T02:02:22;101631.09;;;6.30;66.63
61742;BME280;47650;49.848;9.620;2023-02-12T02:04:56;101635.69;;;6.45;66.08
61742;BME280;47650;49.848;9.620;2023-02-12T02:07:24;101603.34;;;6.42;66.42
61742;BME280;47650;49.848;9.620;2023-02-12T02:09:51;101634.66;;;6.68;65.64
61742;BME280;47650;49.848;9.620;2023-02-12T02:12:23;101638.72;;;6.75;65.48
61742;BME280;47650;49.848;9.620;2023-02-12T02:15:08;101610.22;;;6.65;65.54
61742;BME280;47650;49.848;9.620;2023-02-12T02:18:00;101634.09;;;6.81;64.79
61742;BME280;47650;49.848;9.620;2023-02-12T02:26:18;101640.78;;;6.69;63.54
61742;BME280;47650;49.848;9.620;2023-02-12T02:31:46;101641.00;;;6.83;64.19
61742;BME280;47650;49.848;9.620;2023-02-12T02:37:39;101650.13;;;6.76;64.42
61742;BME280;47650;49.848;9.620;2023-02-12T02:43:09;101654.69;;;6.91;64.70
61742;BME280;47650;49.848;9.620;2023-02-12T02:45:42;101647.97;;;7.03;64.32
61742;BME280;47650;49.848;9.620;2023-02-12T02:48:37;101603.72;;;6.91;64.09
61742;BME280;47650;49.848;9.620;2023-02-12T02:51:13;101624.50;;;7.16;63.44
61742;BME280;47650;49.848;9.620;2023-02-12T02:56:47;101579.53;;;7.00;63.17
61742;BME280;47650;49.848;9.620;2023-02-12T02:59:22;101634.66;;;7.43;62.57
61742;BME280;47650;49.848;9.620;2023-02-12T03:01:58;101631.25;;;7.41;62.57
61742;BME280;47650;49.848;9.620;2023-02-12T03:04:39;101581.38;;;7.17;62.09
61742;BME280;47650;49.848;9.620;2023-02-12T03:07:18;101648.16;;;7.54;61.65
61742;BME280;47650;49.848;9.620;2023-02-12T03:10:00;101648.16;;;7.54;61.38
61742;BME280;47650;49.848;9.620;2023-02-12T03:12:33;101654.53;;;7.50;60.59
61742;BME280;47650;49.848;9.620;2023-02-12T03:15:40;101645.84;;;7.48;61.16
61742;BME280;47650;49.848;9.620;2023-02-12T03:18:09;101641.19;;;7.53;61.40
61742;BME280;47650;49.848;9.620;2023-02-12T03:20:44;101625.72;;;7.45;61.31
61742;BME280;47650;49.848;9.620;2023-02-12T03:26:26;101641.81;;;7.41;60.40
61742;BME280;47650;49.848;9.620;2023-02-12T03:29:06;101648.63;;;7.45;60.67
61742;BME280;47650;49.848;9.620;2023-02-12T03:34:45;101663.09;;;7.55;61.03
61742;BME280;47650;49.848;9.620;2023-02-12T03:37:29;101612.44;;;7.29;61.55
61742;BME280;47650;49.848;9.620;2023-02-12T03:40:27;101661.22;;;7.57;61.27
61742;BME280;47650;49.848;9.620;2023-02-12T03:43:18;101646.94;;;7.61;61.61
61742;BME280;47650;49.848;9.620;2023-02-12T03:46:22;101651.44;;;7.59;60.66
61742;BME280;47650;49.848;9.620;2023-02-12T03:48:59;101655.44;;;7.49;60.06
61742;BME280;47650;49.848;9.620;2023-02-12T03:51:37;101611.81;;;7.24;60.69
61742;BME280;47650;49.848;9.620;2023-02-12T03:54:15;101650.66;;;7.57;61.06
61742;BME280;47650;49.848;9.620;2023-02-12T03:56:57;101648.03;;;7.57;61.17
61742;BME280;47650;49.848;9.620;2023-02-12T03:59:24;101604.50;;;7.29;61.14
61742;BME280;47650;49.848;9.620;2023-02-12T04:01:53;101654.75;;;7.45;60.15
61742;BME280;47650;49.848;9.620;2023-02-12T04:04:21;101651.09;;;7.30;60.82
61742;BME280;47650;49.848;9.620;2023-02-12T04:06:53;101646.44;;;7.36;61.83
61742;BME280;47650;49.848;9.620;2023-02-12T04:09:22;101642.09;;;7.34;61.90
61742;BME280;47650;49.848;9.620;2023-02-12T04:20:25;101611.81;;;7.24;61.52
61742;BME280;47650;49.848;9.620;2023-02-12T04:29:04;101669.06;;;7.59;61.49
61742;BME280;47650;49.848;9.620;2023-02-12T04:31:40;101662.31;;;7.53;61.46
61742;BME280;47650;49.848;9.620;2023-02-12T04:36:44;101669.66;;;7.46;60.70
61742;BME280;47650;49.848;9.620;2023-02-12T04:39:24;101670.72;;;7.42;60.82
61742;BME280;47650;49.848;9.620;2023-02-12T04:41:58;101664.75;;;7.39;61.01
61742;BME280;47650;49.848;9.620;2023-02-12T04:44:33;101639.22;;;7.03;60.42
61742;BME280;47650;49.848;9.620;2023-02-12T04:47:01;101675.06;;;7.26;61.08
61742;BME280;47650;49.848;9.620;2023-02-12T04:49:27;101653.25;;;7.03;61.55
61742;BME280;47650;49.848;9.620;2023-02-12T04:52:05;101679.91;;;7.16;61.64
61742;BME280;47650;49.848;9.620;2023-02-12T04:54:34;101668.38;;;7.00;61.41
61742;BME280;47650;49.848;9.620;2023-02-12T04:57:26;101687.09;;;7.12;61.57
61742;BME280;47650;49.848;9.620;2023-02-12T05:00:08;101689.59;;;7.15;61.56
61742;BME280;47650;49.848;9.620;2023-02-12T05:02:34;101662.66;;;7.09;61.69
61742;BME280;47650;49.848;9.620;2023-02-12T05:05:07;101683.81;;;7.26;61.67
61742;BME280;47650;49.848;9.620;2023-02-12T05:07:40;101538.56;;;6.37;61.42
61742;BME280;47650;49.848;9.620;2023-02-12T05:10:08;101683.88;;;7.25;61.65
61742;BME280;47650;49.848;9.620;2023-02-12T05:12:35;101675.31;;;7.20;61.78
61742;BME280;47650;49.848;9.620;2023-02-12T05:15:07;101681.88;;;7.30;61.55
61742;BME280;47650;49.848;9.620;2023-02-12T05:17:42;101665.78;;;7.17;61.70
61742;BME280;47650;49.848;9.620;2023-02-12T05:20:10;101689.66;;;7.33;61.37
61742;BME280;47650;49.848;9.620;2023-02-12T05:22:36;101679.94;;;7.33;61.65
61742;BME280;47650;49.848;9.620;2023-02-12T05:25:12;101669.28;;;7.18;60.88
61742;BME280;47650;49.848;9.620;2023-02-12T05:27:38;101697.72;;;7.30;61.10
61742;BME280;47650;49.848;9.620;2023-02-12T05:30:06;101671.97;;;7.16;61.13
61742;BME280;47650;49.848;9.620;2023-02-12T05:32:33;101665.94;;;7.14;60.90
61742;BME280;47650;49.848;9.620;2023-02-12T05:34:59;101689.25;;;7.23;60.61
61742;BME280;47650;49.848;9.620;2023-02-12T05:37:34;101692.31;;;7.14;60.55
61742;BME280;47650;49.848;9.620;2023-02-12T05:40:05;101687.63;;;7.02;60.99
61742;BME280;47650;49.848;9.620;2023-02-12T05:42:35;101677.75;;;6.86;61.38
61742;BME280;47650;49.848;9.620;2023-02-12T05:45:02;101698.03;;;6.86;61.52
61742;BME280;47650;49.848;9.620;2023-02-12T05:47:28;101660.63;;;6.57;61.82
61742;BME280;47650;49.848;9.620;2023-02-12T05:49:53;101698.50;;;6.75;62.20
61742;BME280;47650;49.848;9.620;2023-02-12T05:52:18;101690.41;;;6.59;62.23
61742;BME280;47650;49.848;9.620;2023-02-12T05:54:48;101637.78;;;6.18;61.78
61742;BME280;47650;49.848;9.620;2023-02-12T05:57:15;101698.69;;;6.51;62.26
61742;BME280;47650;49.848;9.620;2023-02-12T05:59:57;101694.53;;;6.46;62.64
61742;BME280;47650;49.848;9.620;2023-02-12T06:02:29;101609.94;;;5.92;62.84
61742;BME280;47650;49.848;9.620;2023-02-12T06:04:58;101713.19;;;6.41;63.33
61742;BME280;47650;49.848;9.620;2023-02-12T06:07:23;101701.72;;;6.21;63.02
61742;BME280;47650;49.848;9.620;2023-02-12T06:09:56;101629.06;;;5.75;63.50
61742;BME280;47650;49.848;9.620;2023-02-12T06:12:22;101652.53;;;5.79;63.51
61742;BME280;47650;49.848;9.620;2023-02-12T06:14:48;101718.06;;;6.09;63.60
61742;BME280;47650;49.848;9.620;2023-02-12T06:17:14;101553.13;;;5.02;63.74
61742;BME280;47650;49.848;9.620;2023-02-12T06:19:41;101718.47;;;5.98;63.65
61742;BME280;47650;49.848;9.620;2023-02-12T06:22:06;101693.69;;;5.82;63.65
61742;BME280;47650;49.848;9.620;2023-02-12T06:24:31;101726.75;;;5.89;63.91
61742;BME280;47650;49.848;9.620;2023-02-12T06:26:57;101612.97;;;5.18;63.71
61742;BME280;47650;49.848;9.620;2023-02-12T06:29:34;101722.72;;;5.80;63.59
61742;BME280;47650;49.848;9.620;2023-02-12T06:32:07;101731.66;;;5.76;64.41
61742;BME280;47650;49.848;9.620;2023-02-12T06:34:35;101682.84;;;5.47;64.49
61742;BME280;47650;49.848;9.620;2023-02-12T06:37:00;101716.34;;;5.64;63.99
61742;BME280;47650;49.848;9.620;2023-02-12T06:39:28;101740.34;;;5.78;64.14
61742;BME280;47650;49.848;9.620;2023-02-12T06:41:53;101748.19;;;5.80;63.99
61742;BME280;47650;49.848;9.620;2023-02-12T06:44:30;101745.34;;;5.84;64.16
61742;BME280;47650;49.848;9.620;2023-02-12T06:46:56;101745.09;;;5.91;64.40
61742;BME280;47650;49.848;9.620;2023-02-12T06:49:28;101737.03;;;5.95;64.19
61742;BME280;47650;49.848;9.620;2023-02-12T06:52:07;101747.94;;;6.08;64.18
61742;BME280;47650;49.848;9.620;2023-02-12T06:54:32;101748.41;;;6.18;64.14
61742;BME280;47650;49.848;9.620;2023-02-12T06:57:07;101754.00;;;6.31;64.41
61742;BME280;47650;49.848;9.620;2023-02-12T06:59:39;101713.50;;;6.13;64.36
61742;BME280;47650;49.848;9.620;2023-02-12T07:02:16;101738.41;;;6.47;63.51
61742;BME280;47650;49.848;9.620;2023-02-12T07:04:46;101605.31;;;5.76;63.60
61742;BME280;47650;49.848;9.620;2023-02-12T07:07:14;101757.72;;;6.87;63.43
61742;BME280;47650;49.848;9.620;2023-02-12T07:09:45;101747.03;;;6.90;62.95
61742;BME280;47650;49.848;9.620;2023-02-12T07:12:10;101758.25;;;7.14;62.05
61742;BME280;47650;49.848;9.620;2023-02-12T07:14:46;101753.19;;;7.28;61.45
61742;BME280;47650;49.848;9.620;2023-02-12T07:17:17;101730.38;;;7.27;61.49
61742;BME280;47650;49.848;9.620;2023-02-12T07:19:44;101741.06;;;7.43;61.00
61742;BME280;47650;49.848;9.620;2023-02-12T07:22:10;101744.00;;;7.56;60.07
61742;BME280;47650;49.848;9.620;2023-02-12T07:24:37;101759.72;;;7.77;60.67
61742;BME280;47650;49.848;9.620;2023-02-12T07:27:03;101745.38;;;7.82;60.16
61742;BME280;47650;49.848;9.620;2023-02-12T07:29:30;101698.19;;;7.75;59.67
61742;BME280;47650;49.848;9.620;2023-02-12T07:31:55;101758.84;;;8.30;59.98
61742;BME280;47650;49.848;9.620;2023-02-12T07:34:22;101764.44;;;8.41;58.84
61742;BME280;47650;49.848;9.620;2023-02-12T07:36:47;101766.34;;;8.57;58.44
61742;BME280;47650;49.848;9.620;2023-02-12T07:39:12;101768.34;;;8.69;58.09
61742;BME280;47650;49.848;9.620;2023-02-12T07:41:39;101763.50;;;8.77;57.71
61742;BME280;47650;49.848;9.620;2023-02-12T07:44:06;101766.97;;;8.95;57.55
61742;BME280;47650;49.848;9.620;2023-02-12T07:46:46;101762.72;;;9.09;57.52
61742;BME280;47650;49.848;9.620;2023-02-12T07:49:23;101768.19;;;9.21;57.25
61742;BME280;47650;49.848;9.620;2023-02-12T07:51:54;101742.69;;;9.20;56.40
61742;BME280;47650;49.848;9.620;2023-02-12T07:54:27;101758.66;;;9.35;56.15
61742;BME280;47650;49.848;9.620;2023-02-12T07:56:53;101755.25;;;9.49;56.11
61742;BME280;47650;49.848;9.620;2023-02-12T07:59:19;101751.66;;;9.66;56.37
61742;BME280;47650;49.848;9.620;2023-02-12T08:01:48;101769.53;;;9.92;55.82
61742;BME280;47650;49.848;9.620;2023-02-12T08:04:24;101773.03;;;10.09;55.56
61742;BME280;47650;49.848;9.620;2023-02-12T08:06:53;101769.28;;;10.27;55.11
61742;BME280;47650;49.848;9.620;2023-02-12T08:09:25;101738.94;;;10.03;54.45
61742;BME280;47650;49.848;9.620;2023-02-12T08:11:52;101754.09;;;10.15;54.43
61742;BME280;47650;49.848;9.620;2023-02-12T08:14:19;101756.16;;;10.10;54.36
61742;BME280;47650;49.848;9.620;2023-02-12T08:16:46;101764.28;;;10.53;55.17
61742;BME280;47650;49.848;9.620;2023-02-12T08:19:13;101778.88;;;10.60;54.00
61742;BME280;47650;49.848;9.620;2023-02-12T08:21:40;101738.50;;;10.41;53.72
61742;BME280;47650;49.848;9.620;2023-02-12T08:24:08;101773.06;;;9.77;54.76
61742;BME280;47650;49.848;9.620;2023-02-12T08:26:37;101784.59;;;9.12;57.46
61742;BME280;47650;49.848;9.620;2023-02-12T08:29:09;101788.69;;;8.84;59.50
61742;BME280;47650;49.848;9.620;2023-02-12T08:31:37;101802.09;;;8.46;61.20
61742;BME280;47650;49.848;9.620;2023-02-12T08:34:25;101799.59;;;8.61;61.76
61742;BME280;47650;49.848;9.620;2023-02-12T08:36:52;101780.63;;;8.53;61.67
61742;BME280;47650;49.848;9.620;2023-02-12T08:39:32;101804.25;;;8.38;61.22
61742;BME280;47650;49.848;9.620;2023-02-12T08:42:09;101768.25;;;7.82;62.66
61742;BME280;47650;49.848;9.620;2023-02-12T08:44:35;101771.06;;;8.15;62.63
61742;BME280;47650;49.848;9.620;2023-02-12T08:47:09;101808.16;;;8.66;61.12
61742;BME280;47650;49.848;9.620;2023-02-12T08:49:45;101817.53;;;8.19;61.99
61742;BME280;47650;49.848;9.620;2023-02-12T08:52:10;101815.81;;;8.55;61.79
61742;BME280;47650;49.848;9.620;2023-02-12T08:54:36;101818.81;;;8.47;61.55
61742;BME280;47650;49.848;9.620;2023-02-12T08:57:02;101813.88;;;8.22;62.15
61742;BME280;47650;49.848;9.620;2023-02-12T08:59:40;101814.22;;;8.51;61.39
61742;BME280;47650;49.848;9.620;2023-02-12T09:02:09;101809.69;;;8.35;61.71
61742;BME280;47650;49.848;9.620;2023-02-12T09:04:35;101801.75;;;8.70;60.74
61742;BME280;47650;49.848;9.620;2023-02-12T09:07:00;101725.72;;;8.40;60.01
61742;BME280;47650;49.848;9.620;2023-02-12T09:09:26;101802.53;;;9.39;60.17
61742;BME280;47650;49.848;9.620;2023-02-12T09:12:01;101728.69;;;9.34;58.23
61742;BME280;47650;49.848;9.620;2023-02-12T09:14:27;101811.28;;;9.73;57.69
61742;BME280;47650;49.848;9.620;2023-02-12T09:16:58;101794.88;;;9.66;58.39
61742;BME280;47650;49.848;9.620;2023-02-12T09:19:24;101805.94;;;10.05;58.45
61742;BME280;47650;49.848;9.620;2023-02-12T09:21:51;101802.94;;;10.11;57.16
61742;BME280;47650;49.848;9.620;2023-02-12T09:24:33;101794.75;;;10.90;56.55
61742;BME280;47650;49.848;9.620;2023-02-12T09:26:59;101800.56;;;11.53;54.73
61742;BME280;47650;49.848;9.620;2023-02-12T09:29:39;101797.84;;;10.83;55.02
61742;BME280;47650;49.848;9.620;2023-02-12T09:32:04;101804.25;;;10.04;57.25
61742;BME280;47650;49.848;9.620;2023-02-12T09:34:35;101796.16;;;11.10;56.08
61742;BME280;47650;49.848;9.620;2023-02-12T09:37:04;101801.47;;;11.10;54.96
61742;BME280;47650;49.848;9.620;2023-02-12T09:39:31;101767.50;;;11.16;53.92
61742;BME280;47650;49.848;9.620;2023-02-12T09:42:46;101808.16;;;9.96;58.28
61742;BME280;47650;49.848;9.620;2023-02-12T09:45:24;101799.00;;;10.18;58.42
61742;BME280;47650;49.848;9.620;2023-02-12T09:50:49;101674.50;;;10.31;56.46
61742;BME280;47650;49.848;9.620;2023-02-12T09:53:24;101795.44;;;11.50;54.26
61742;BME280;47650;49.848;9.620;2023-02-12T09:55:51;101800.63;;;11.66;54.43
61742;BME280;47650;49.848;9.620;2023-02-12T09:58:30;101796.31;;;11.36;55.04
61742;BME280;47650;49.848;9.620;2023-02-12T10:00:58;101788.66;;;12.28;53.11
61742;BME280;47650;49.848;9.620;2023-02-12T10:03:28;101774.88;;;12.61;52.17
61742;BME280;47650;49.848;9.620;2023-02-12T10:06:00;101789.94;;;13.50;50.54
61742;BME280;47650;49.848;9.620;2023-02-12T10:08:43;101776.00;;;14.19;47.83
61742;BME280;47650;49.848;9.620;2023-02-12T10:11:28;101781.78;;;14.48;47.14
61742;BME280;47650;49.848;9.620;2023-02-12T10:17:17;101779.84;;;14.15;48.85
61742;BME280;47650;49.848;9.620;2023-02-12T10:28:46;101758.09;;;13.73;47.73
61742;BME280;47650;49.848;9.620;2023-02-12T10:31:14;101771.22;;;13.26;49.87
61742;BME280;47650;49.848;9.620;2023-02-12T10:33:48;101761.69;;;14.20;47.31
61742;BME280;47650;49.848;9.620;2023-02-12T10:39:23;101762.66;;;13.47;49.55
61742;BME280;47650;49.848;9.620;2023-02-12T10:41:57;101755.41;;;15.13;46.62
61742;BME280;47650;49.848;9.620;2023-02-12T10:44:25;101735.41;;;15.95;44.58
61742;BME280;47650;49.848;9.620;2023-02-12T10:46:51;101756.28;;;16.33;42.88
61742;BME280;47650;49.848;9.620;2023-02-12T10:49:19;101742.97;;;17.45;41.38
61742;BME280;47650;49.848;9.620;2023-02-12T10:52:14;101746.59;;;17.25;40.87
61742;BME280;47650;49.848;9.620;2023-02-12T10:54:53;101740.03;;;17.48;40.04
61742;BME280;47650;49.848;9.620;2023-02-12T10:57:24;101743.78;;;16.02;42.61
61742;BME280;47650;49.848;9.620;2023-02-12T10:59:54;101746.50;;;14.56;46.80
61742;BME280;47650;49.848;9.620;2023-02-12T11:02:29;101747.66;;;14.99;47.42
61742;BME280;47650;49.848;9.620;2023-02-12T11:04:58;101744.44;;;15.39;46.05
61742;BME280;47650;49.848;9.620;2023-02-12T11:07:26;101750.09;;;15.02;46.42
61742;BME280;47650;49.848;9.620;2023-02-12T11:09:54;101731.59;;;16.30;45.62
61742;BME280;47650;49.848;9.620;2023-02-12T11:15:00;101729.03;;;17.52;42.63
61742;BME280;47650;49.848;9.620;2023-02-12T11:17:39;101716.38;;;17.93;41.24
61742;BME280;47650;49.848;9.620;2023-02-12T11:20:29;101719.47;;;18.65;40.49
61742;BME280;47650;49.848;9.620;2023-02-12T11:23:00;101687.44;;;18.91;38.46
61742;BME280;47650;49.848;9.620;2023-02-12T11:25:30;101679.03;;;18.66;38.80
61742;BME280;47650;49.848;9.620;2023-02-12T11:28:16;101708.44;;;17.62;41.15
61742;BME280;47650;49.848;9.620;2023-02-12T11:30:54;101693.94;;;20.24;37.76
61742;BME280;47650;49.848;9.620;2023-02-12T11:33:35;101693.34;;;19.22;37.03
61742;BME280;47650;49.848;9.620;2023-02-12T11:36:22;101677.09;;;20.22;37.36
61742;BME280;47650;49.848;9.620;2023-02-12T11:38:52;101674.63;;;20.89;35.32
61742;BME280;47650;49.848;9.620;2023-02-12T11:41:56;101669.50;;;20.70;35.10
61742;BME280;47650;49.848;9.620;2023-02-12T11:44:37;101672.31;;;21.02;34.48
61742;BME280;47650;49.848;9.620;2023-02-12T11:47:07;101668.69;;;22.51;33.92
61742;BME280;47650;49.848;9.620;2023-02-12T11:49:37;101647.25;;;23.90;30.03
61742;BME280;47650;49.848;9.620;2023-02-12T11:52:05;101655.38;;;23.21;30.39
61742;BME280;47650;49.848;9.620;2023-02-12T11:54:41;101652.84;;;25.08;28.93
61742;BME280;47650;49.848;9.620;2023-02-12T12:00:24;101645.63;;;24.64;28.92
61742;BME280;47650;49.848;9.620;2023-02-12T12:03:09;101643.53;;;24.36;28.89
61742;BME280;47650;49.848;9.620;2023-02-12T12:05:47;101638.88;;;24.74;27.78
61742;BME280;47650;49.848;9.620;2023-02-12T12:08:34;101627.91;;;24.53;28.67
61742;BME280;47650;49.848;9.620;2023-02-12T12:14:40;101622.00;;;25.15;27.72
61742;BME280;47650;49.848;9.620;2023-02-12T12:21:33;101577.75;;;22.90;30.74
61742;BME280;47650;49.848;9.620;2023-02-12T12:24:04;101625.47;;;24.88;27.14
61742;BME280;47650;49.848;9.620;2023-02-12T12:26:33;101618.81;;;25.27;26.71
61742;BME280;47650;49.848;9.620;2023-02-12T12:29:05;101621.88;;;25.39;26.84
61742;BME280;47650;49.848;9.620;2023-02-12T12:31:58;101635.88;;;24.10;28.74
61742;BME280;47650;49.848;9.620;2023-02-12T12:34:26;101613.38;;;26.33;25.51
61742;BME280;47650;49.848;9.620;2023-02-12T12:37:11;101613.66;;;26.93;24.86
61742;BME280;47650;49.848;9.620;2023-02-12T12:40:06;101604.00;;;28.44;24.00
61742;BME280;47650;49.848;9.620;2023-02-12T12:43:01;101595.66;;;29.80;21.65
61742;BME280;47650;49.848;9.620;2023-02-12T12:53:54;101595.97;;;27.71;23.68
61742;BME280;47650;49.848;9.620;2023-02-12T13:05:07;101605.16;;;22.79;30.93
61742;BME280;47650;49.848;9.620;2023-02-12T13:24:35;101575.53;;;19.80;36.11
61742;BME280;47650;49.848;9.620;2023-02-12T13:27:15;101619.59;;;19.43;37.44
61742;BME280;47650;49.848;9.620;2023-02-12T13:32:43;101622.38;;;18.87;39.72
61742;BME280;47650;49.848;9.620;2023-02-12T13:35:19;101630.09;;;18.35;40.38
61742;BME280;47650;49.848;9.620;2023-02-12T13:37:53;101636.00;;;18.76;39.64
61742;BME280;47650;49.848;9.620;2023-02-12T13:40:28;101638.50;;;18.22;39.85
61742;BME280;47650;49.848;9.620;2023-02-12T13:51:00;101641.00;;;15.83;45.91
61742;BME280;47650;49.848;9.620;2023-02-12T13:56:46;101583.44;;;16.10;44.86
61742;BME280;47650;49.848;9.620;2023-02-12T13:59:43;101642.09;;;16.23;45.86
61742;BME280;47650;49.848;9.620;2023-02-12T14:02:39;101640.22;;;15.28;47.49
61742;BME280;47650;49.848;9.620;2023-02-12T14:05:26;101642.16;;;15.37;47.49
61742;BME280;47650;49.848;9.620;2023-02-12T14:07:57;101641.81;;;15.63;47.34
61742;BME280;47650;49.848;9.620;2023-02-12T14:15:52;101621.81;;;15.13;48.73
61742;BME280;47650;49.848;9.620;2023-02-12T14:18:36;101628.94;;;15.35;48.01
61742;BME280;47650;49.848;9.620;2023-02-12T14:23:45;101641.50;;;15.45;47.93
61742;BME280;47650;49.848;9.620;2023-02-12T14:26:20;101637.94;;;15.55;47.50
61742;BME280;47650;49.848;9.620;2023-02-12T14:28:55;101637.91;;;15.67;47.45
61742;BME280;47650;49.848;9.620;2023-02-12T14:31:31;101634.56;;;15.53;46.99
61742;BME280;47650;49.848;9.620;2023-02-12T14:36:46;101620.31;;;15.32;48.06
61742;BME280;47650;49.848;9.620;2023-02-12T14:41:51;101645.41;;;15.08;48.38
61742;BME280;47650;49.848;9.620;2023-02-12T14:46:58;101598.59;;;14.36;49.51
61742;BME280;47650;49.848;9.620;2023-02-12T14:49:27;101638.16;;;14.54;49.70
61742;BME280;47650;49.848;9.620;2023-02-12T14:55:03;101640.13;;;14.63;49.70
61742;BME280;47650;49.848;9.620;2023-02-12T14:57:59;101637.19;;;14.77;49.58
61742;BME280;47650;49.848;9.620;2023-02-12T15:00:44;101637.81;;;14.58;49.87
61742;BME280;47650;49.848;9.620;2023-02-12T15:03:39;101629.91;;;14.79;49.38
61742;BME280;47650;49.848;9.620;2023-02-12T15:06:07;101637.41;;;14.52;49.55
61742;BME280;47650;49.848;9.620;2023-02-12T15:09:01;101635.88;;;14.60;50.12
61742;BME280;47650;49.848;9.620;2023-02-12T15:11:53;101637.88;;;14.34;49.95
61742;BME280;47650;49.848;9.620;2023-02-12T15:14:28;101623.47;;;14.37;50.19
61742;BME280;47650;49.848;9.620;2023-02-12T15:17:21;101631.28;;;13.93;50.94
61742;BME280;47650;49.848;9.620;2023-02-12T15:20:00;101628.41;;;14.07;51.04
61742;BME280;47650;49.848;9.620;2023-02-12T15:22:33;101625.19;;;13.80;51.12
61742;BME280;47650;49.848;9.620;2023-02-12T15:25:22;101633.00;;;14.05;51.13
61742;BME280;47650;49.848;9.620;2023-02-12T15:28:17;101624.13;;;14.05;50.76
61742;BME280;47650;49.848;9.620;2023-02-12T15:30:45;101634.81;;;14.05;51.22
61742;BME280;47650;49.848;9.620;2023-02-12T15:33:25;101618.41;;;13.76;51.41
61742;BME280;47650;49.848;9.620;2023-02-12T15:35:51;101633.09;;;13.92;51.72
61742;BME280;47650;49.848;9.620;2023-02-12T15:38:34;101613.31;;;13.72;52.05
61742;BME280;47650;49.848;9.620;2023-02-12T15:41:01;101616.91;;;13.60;51.98
61742;BME280;47650;49.848;9.620;2023-02-12T15:43:38;101607.16;;;13.48;52.60
61742;BME280;47650;49.848;9.620;2023-02-12T15:46:15;101626.84;;;13.69;52.28
61742;BME280;47650;49.848;9.620;2023-02-12T15:48:58;101621.94;;;13.52;52.42
61742;BME280;47650;49.848;9.620;2023-02-12T15:51:36;101623.63;;;13.53;52.63